sensor_id;sensor_type;location;lat;lon;timestamp;P1;durP1;ratioP1;P2;durP2;ratioP2
50932;SDS011;36921;49.006;9.292;2022-12-07T00:00:40;11.73;;;5.82;;
50932;SDS011;36921;49.006;9.292;2022-12-07T00:03:05;13.05;;;5.72;;
50932;SDS011;36921;49.006;9.292;2022-12-07T00:05:30;12.32;;;6.45;;
50932;SDS011;36921;49.006;9.292;2022-12-07T00:07:56;11.10;;;6.20;;
50932;SDS011;36921;49.006;9.292;2022-12-07T00:10:21;11.32;;;6.50;;
50932;SDS011;36921;49.006;9.292;2022-12-07T00:12:46;10.32;;;6.35;;
50932;SDS011;36921;49.006;9.292;2022-12-07T00:15:12;11.38;;;6.68;;
50932;SDS011;36921;49.006;9.292;2022-12-07T00:17:37;10.77;;;5.38;;
50932;SDS011;36921;49.006;9.292;2022-12-07T00:20:02;12.55;;;6.03;;
50932;SDS011;36921;49.006;9.292;2022-12-07T00:22:28;11.00;;;5.60;;
50932;SDS011;36921;49.006;9.292;2022-12-07T00:24:54;13.00;;;6.82;;
50932;SDS011;36921;49.006;9.292;2022-12-07T00:27:19;13.02;;;6.50;;
50932;SDS011;36921;49.006;9.292;2022-12-07T00:29:45;11.75;;;6.13;;
50932;SDS011;36921;49.006;9.292;2022-12-07T00:32:10;12.40;;;5.82;;
50932;SDS011;36921;49.006;9.292;2022-12-07T00:34:35;10.95;;;5.15;;
50932;SDS011;36921;49.006;9.292;2022-12-07T00:37:00;9.88;;;5.25;;
50932;SDS011;36921;49.006;9.292;2022-12-07T00:39:26;11.43;;;5.40;;
50932;SDS011;36921;49.006;9.292;2022-12-07T00:41:51;13.00;;;4.90;;
50932;SDS011;36921;49.006;9.292;2022-12-07T00:44:17;11.30;;;5.10;;
50932;SDS011;36921;49.006;9.292;2022-12-07T00:46:42;9.80;;;5.65;;
50932;SDS011;36921;49.006;9.292;2022-12-07T00:49:07;10.18;;;4.97;;
50932;SDS011;36921;49.006;9.292;2022-12-07T00:51:33;11.25;;;5.70;;
50932;SDS011;36921;49.006;9.292;2022-12-07T00:53:58;11.95;;;6.00;;
50932;SDS011;36921;49.006;9.292;2022-12-07T00:56:25;9.25;;;5.25;;
50932;SDS011;36921;49.006;9.292;2022-12-07T01:01:21;9.48;;;5.50;;
50932;SDS011;36921;49.006;9.292;2022-12-07T01:03:47;8.43;;;4.97;;
50932;SDS011;36921;49.006;9.292;2022-12-07T01:06:16;12.35;;;5.30;;
50932;SDS011;36921;49.006;9.292;2022-12-07T01:08:43;10.75;;;5.68;;
50932;SDS011;36921;49.006;9.292;2022-12-07T01:11:09;11.85;;;6.35;;
50932;SDS011;36921;49.006;9.292;2022-12-07T01:16:04;13.55;;;5.93;;
50932;SDS011;36921;49.006;9.292;2022-12-07T01:18:31;16.02;;;7.07;;
50932;SDS011;36921;49.006;9.292;2022-12-07T01:21:01;11.75;;;6.05;;
50932;SDS011;36921;49.006;9.292;2022-12-07T01:23:29;13.00;;;5.90;;
50932;SDS011;36921;49.006;9.292;2022-12-07T01:25:59;12.05;;;6.43;;
50932;SDS011;36921;49.006;9.292;2022-12-07T01:28:26;12.45;;;6.70;;
50932;SDS011;36921;49.006;9.292;2022-12-07T01:30:59;12.52;;;6.75;;
50932;SDS011;36921;49.006;9.292;2022-12-07T01:33:33;14.05;;;6.65;;
50932;SDS011;36921;49.006;9.292;2022-12-07T01:36:01;12.90;;;6.78;;
50932;SDS011;36921;49.006;9.292;2022-12-07T01:38:30;12.02;;;6.50;;
50932;SDS011;36921;49.006;9.292;2022-12-07T01:40:57;11.68;;;6.43;;
50932;SDS011;36921;49.006;9.292;2022-12-07T01:43:23;13.77;;;6.28;;
50932;SDS011;36921;49.006;9.292;2022-12-07T01:45:50;11.60;;;5.70;;
50932;SDS011;36921;49.006;9.292;2022-12-07T01:48:16;13.15;;;6.00;;
50932;SDS011;36921;49.006;9.292;2022-12-07T01:50:46;12.02;;;6.03;;
50932;SDS011;36921;49.006;9.292;2022-12-07T01:55:42;12.10;;;6.35;;
50932;SDS011;36921;49.006;9.292;2022-12-07T02:00:36;13.30;;;5.18;;
50932;SDS011;36921;49.006;9.292;2022-12-07T02:05:34;13.48;;;6.20;;
50932;SDS011;36921;49.006;9.292;2022-12-07T02:08:01;14.15;;;6.47;;
50932;SDS011;36921;49.006;9.292;2022-12-07T02:10:29;15.07;;;6.30;;
50932;SDS011;36921;49.006;9.292;2022-12-07T02:12:57;13.70;;;6.80;;
50932;SDS011;36921;49.006;9.292;2022-12-07T02:15:29;16.92;;;6.70;;
50932;SDS011;36921;49.006;9.292;2022-12-07T02:21:24;15.10;;;6.70;;
50932;SDS011;36921;49.006;9.292;2022-12-07T02:27:02;12.32;;;6.65;;
50932;SDS011;36921;49.006;9.292;2022-12-07T02:32:28;17.48;;;7.28;;
50932;SDS011;36921;49.006;9.292;2022-12-07T02:35:06;12.55;;;6.82;;
50932;SDS011;36921;49.006;9.292;2022-12-07T02:43:23;16.05;;;6.60;;
50932;SDS011;36921;49.006;9.292;2022-12-07T02:45:54;16.08;;;7.00;;
50932;SDS011;36921;49.006;9.292;2022-12-07T02:48:27;13.48;;;7.03;;
50932;SDS011;36921;49.006;9.292;2022-12-07T02:50:53;15.88;;;7.25;;
50932;SDS011;36921;49.006;9.292;2022-12-07T02:53:29;20.35;;;7.47;;
50932;SDS011;36921;49.006;9.292;2022-12-07T02:55:54;17.25;;;6.93;;
50932;SDS011;36921;49.006;9.292;2022-12-07T02:58:23;20.75;;;7.32;;
50932;SDS011;36921;49.006;9.292;2022-12-07T03:01:11;16.45;;;7.03;;
50932;SDS011;36921;49.006;9.292;2022-12-07T03:03:47;16.85;;;7.20;;
50932;SDS011;36921;49.006;9.292;2022-12-07T03:06:21;17.98;;;7.28;;
50932;SDS011;36921;49.006;9.292;2022-12-07T03:11:50;18.95;;;7.50;;
50932;SDS011;36921;49.006;9.292;2022-12-07T03:14:29;17.08;;;7.57;;
50932;SDS011;36921;49.006;9.292;2022-12-07T03:17:01;20.15;;;8.77;;
50932;SDS011;36921;49.006;9.292;2022-12-07T03:19:35;22.27;;;8.48;;
50932;SDS011;36921;49.006;9.292;2022-12-07T03:22:04;21.27;;;8.77;;
50932;SDS011;36921;49.006;9.292;2022-12-07T03:24:36;21.67;;;8.30;;
50932;SDS011;36921;49.006;9.292;2022-12-07T03:27:09;23.20;;;8.50;;
50932;SDS011;36921;49.006;9.292;2022-12-07T03:29:50;24.55;;;8.70;;
50932;SDS011;36921;49.006;9.292;2022-12-07T03:32:20;23.92;;;9.07;;
50932;SDS011;36921;49.006;9.292;2022-12-07T03:34:53;19.60;;;8.38;;
50932;SDS011;36921;49.006;9.292;2022-12-07T03:37:36;26.35;;;9.27;;
50932;SDS011;36921;49.006;9.292;2022-12-07T03:40:13;26.65;;;10.23;;
50932;SDS011;36921;49.006;9.292;2022-12-07T03:42:44;21.98;;;10.10;;
50932;SDS011;36921;49.006;9.292;2022-12-07T03:45:10;19.27;;;8.80;;
50932;SDS011;36921;49.006;9.292;2022-12-07T03:47:43;22.27;;;9.32;;
50932;SDS011;36921;49.006;9.292;2022-12-07T03:50:15;18.77;;;8.70;;
50932;SDS011;36921;49.006;9.292;2022-12-07T03:52:58;20.70;;;9.70;;
50932;SDS011;36921;49.006;9.292;2022-12-07T03:55:29;25.05;;;10.23;;
50932;SDS011;36921;49.006;9.292;2022-12-07T04:00:32;21.45;;;10.05;;
50932;SDS011;36921;49.006;9.292;2022-12-07T04:02:58;23.05;;;9.75;;
50932;SDS011;36921;49.006;9.292;2022-12-07T04:05:23;28.13;;;10.02;;
50932;SDS011;36921;49.006;9.292;2022-12-07T04:07:49;21.17;;;10.10;;
50932;SDS011;36921;49.006;9.292;2022-12-07T04:10:14;22.35;;;9.85;;
50932;SDS011;36921;49.006;9.292;2022-12-07T04:12:46;21.13;;;9.82;;
50932;SDS011;36921;49.006;9.292;2022-12-07T04:16:09;20.30;;;9.15;;
50932;SDS011;36921;49.006;9.292;2022-12-07T04:19:32;18.25;;;9.00;;
50932;SDS011;36921;49.006;9.292;2022-12-07T04:22:03;19.67;;;9.00;;
50932;SDS011;36921;49.006;9.292;2022-12-07T04:41:30;14.63;;;7.60;;
50932;SDS011;36921;49.006;9.292;2022-12-07T04:44:28;14.27;;;6.60;;
50932;SDS011;36921;49.006;9.292;2022-12-07T04:54:50;14.73;;;8.27;;
50932;SDS011;36921;49.006;9.292;2022-12-07T04:58:27;20.17;;;7.68;;
50932;SDS011;36921;49.006;9.292;2022-12-07T05:00:55;15.32;;;7.65;;
50932;SDS011;36921;49.006;9.292;2022-12-07T05:03:20;16.98;;;8.52;;
50932;SDS011;36921;49.006;9.292;2022-12-07T05:05:45;16.58;;;7.97;;
50932;SDS011;36921;49.006;9.292;2022-12-07T05:08:11;18.85;;;9.10;;
50932;SDS011;36921;49.006;9.292;2022-12-07T05:10:36;17.08;;;8.80;;
50932;SDS011;36921;49.006;9.292;2022-12-07T05:13:02;20.25;;;9.20;;
50932;SDS011;36921;49.006;9.292;2022-12-07T05:15:27;17.80;;;8.98;;
50932;SDS011;36921;49.006;9.292;2022-12-07T05:17:53;19.60;;;9.25;;
50932;SDS011;36921;49.006;9.292;2022-12-07T05:20:18;19.67;;;9.48;;
50932;SDS011;36921;49.006;9.292;2022-12-07T05:22:44;19.98;;;9.32;;
50932;SDS011;36921;49.006;9.292;2022-12-07T05:25:09;19.15;;;9.73;;
50932;SDS011;36921;49.006;9.292;2022-12-07T05:27:34;20.90;;;10.13;;
50932;SDS011;36921;49.006;9.292;2022-12-07T05:30:00;26.40;;;10.95;;
50932;SDS011;36921;49.006;9.292;2022-12-07T05:32:25;18.90;;;9.95;;
50932;SDS011;36921;49.006;9.292;2022-12-07T05:34:50;21.02;;;10.38;;
50932;SDS011;36921;49.006;9.292;2022-12-07T05:37:16;23.30;;;9.48;;
50932;SDS011;36921;49.006;9.292;2022-12-07T05:39:41;20.52;;;10.52;;
50932;SDS011;36921;49.006;9.292;2022-12-07T05:42:08;17.73;;;9.82;;
50932;SDS011;36921;49.006;9.292;2022-12-07T05:44:39;22.08;;;10.05;;
50932;SDS011;36921;49.006;9.292;2022-12-07T05:47:05;28.33;;;11.02;;
50932;SDS011;36921;49.006;9.292;2022-12-07T05:49:40;22.13;;;10.75;;
50932;SDS011;36921;49.006;9.292;2022-12-07T05:52:05;24.52;;;10.45;;
50932;SDS011;36921;49.006;9.292;2022-12-07T05:54:31;22.10;;;10.52;;
50932;SDS011;36921;49.006;9.292;2022-12-07T05:56:57;25.83;;;10.77;;
50932;SDS011;36921;49.006;9.292;2022-12-07T06:02:28;24.33;;;10.50;;
50932;SDS011;36921;49.006;9.292;2022-12-07T06:04:56;22.48;;;10.80;;
50932;SDS011;36921;49.006;9.292;2022-12-07T06:07:21;21.35;;;10.02;;
50932;SDS011;36921;49.006;9.292;2022-12-07T06:10:07;20.30;;;9.13;;
50932;SDS011;36921;49.006;9.292;2022-12-07T06:12:32;21.15;;;9.75;;
50932;SDS011;36921;49.006;9.292;2022-12-07T06:15:03;23.55;;;10.48;;
50932;SDS011;36921;49.006;9.292;2022-12-07T06:17:28;19.38;;;10.02;;
50932;SDS011;36921;49.006;9.292;2022-12-07T06:23:15;24.23;;;14.13;;
50932;SDS011;36921;49.006;9.292;2022-12-07T06:25:45;23.42;;;12.80;;
50932;SDS011;36921;49.006;9.292;2022-12-07T06:28:29;23.27;;;12.82;;
50932;SDS011;36921;49.006;9.292;2022-12-07T06:30:58;23.55;;;12.23;;
50932;SDS011;36921;49.006;9.292;2022-12-07T06:33:25;21.95;;;10.80;;
50932;SDS011;36921;49.006;9.292;2022-12-07T06:35:50;24.42;;;11.70;;
50932;SDS011;36921;49.006;9.292;2022-12-07T06:38:17;23.42;;;12.20;;
50932;SDS011;36921;49.006;9.292;2022-12-07T06:40:44;25.13;;;12.23;;
50932;SDS011;36921;49.006;9.292;2022-12-07T06:43:10;20.98;;;9.27;;
50932;SDS011;36921;49.006;9.292;2022-12-07T06:45:35;20.48;;;11.18;;
50932;SDS011;36921;49.006;9.292;2022-12-07T06:48:00;17.90;;;10.07;;
50932;SDS011;36921;49.006;9.292;2022-12-07T06:50:26;20.30;;;9.18;;
50932;SDS011;36921;49.006;9.292;2022-12-07T06:52:51;18.00;;;8.63;;
50932;SDS011;36921;49.006;9.292;2022-12-07T06:55:17;17.63;;;8.60;;
50932;SDS011;36921;49.006;9.292;2022-12-07T06:57:43;17.42;;;8.65;;
50932;SDS011;36921;49.006;9.292;2022-12-07T07:00:08;16.70;;;8.30;;
50932;SDS011;36921;49.006;9.292;2022-12-07T07:02:34;17.05;;;8.40;;
50932;SDS011;36921;49.006;9.292;2022-12-07T07:04:59;17.65;;;8.57;;
50932;SDS011;36921;49.006;9.292;2022-12-07T07:07:25;16.25;;;8.32;;
50932;SDS011;36921;49.006;9.292;2022-12-07T07:09:50;18.77;;;8.98;;
50932;SDS011;36921;49.006;9.292;2022-12-07T07:12:15;16.75;;;8.23;;
50932;SDS011;36921;49.006;9.292;2022-12-07T07:14:44;17.13;;;8.65;;
50932;SDS011;36921;49.006;9.292;2022-12-07T07:17:09;20.00;;;8.23;;
50932;SDS011;36921;49.006;9.292;2022-12-07T07:19:34;15.27;;;7.70;;
50932;SDS011;36921;49.006;9.292;2022-12-07T07:22:00;15.32;;;7.68;;
50932;SDS011;36921;49.006;9.292;2022-12-07T07:24:34;16.75;;;7.78;;
50932;SDS011;36921;49.006;9.292;2022-12-07T07:26:59;15.55;;;8.30;;
50932;SDS011;36921;49.006;9.292;2022-12-07T07:32:47;18.52;;;9.50;;
50932;SDS011;36921;49.006;9.292;2022-12-07T07:35:12;15.52;;;8.18;;
50932;SDS011;36921;49.006;9.292;2022-12-07T07:37:39;17.23;;;7.32;;
50932;SDS011;36921;49.006;9.292;2022-12-07T07:40:05;15.70;;;8.13;;
50932;SDS011;36921;49.006;9.292;2022-12-07T07:42:31;16.20;;;7.38;;
50932;SDS011;36921;49.006;9.292;2022-12-07T07:44:56;18.38;;;7.97;;
50932;SDS011;36921;49.006;9.292;2022-12-07T07:47:21;18.92;;;7.90;;
50932;SDS011;36921;49.006;9.292;2022-12-07T07:49:47;17.65;;;8.45;;
50932;SDS011;36921;49.006;9.292;2022-12-07T07:52:12;17.83;;;7.75;;
50932;SDS011;36921;49.006;9.292;2022-12-07T07:54:38;21.08;;;9.45;;
50932;SDS011;36921;49.006;9.292;2022-12-07T07:57:03;17.10;;;8.40;;
50932;SDS011;36921;49.006;9.292;2022-12-07T07:59:29;17.30;;;8.02;;
50932;SDS011;36921;49.006;9.292;2022-12-07T08:01:58;16.23;;;7.60;;
50932;SDS011;36921;49.006;9.292;2022-12-07T08:04:23;19.17;;;7.90;;
50932;SDS011;36921;49.006;9.292;2022-12-07T08:06:49;15.55;;;8.07;;
50932;SDS011;36921;49.006;9.292;2022-12-07T08:09:14;16.42;;;8.20;;
50932;SDS011;36921;49.006;9.292;2022-12-07T08:11:39;14.52;;;7.53;;
50932;SDS011;36921;49.006;9.292;2022-12-07T08:14:05;17.23;;;8.13;;
50932;SDS011;36921;49.006;9.292;2022-12-07T08:16:30;16.05;;;7.50;;
50932;SDS011;36921;49.006;9.292;2022-12-07T08:18:55;14.60;;;7.18;;
50932;SDS011;36921;49.006;9.292;2022-12-07T08:24:43;17.70;;;6.57;;
50932;SDS011;36921;49.006;9.292;2022-12-07T08:36:09;15.23;;;7.05;;
50932;SDS011;36921;49.006;9.292;2022-12-07T08:38:36;15.75;;;7.15;;
50932;SDS011;36921;49.006;9.292;2022-12-07T08:41:04;13.68;;;7.32;;
50932;SDS011;36921;49.006;9.292;2022-12-07T08:43:34;15.32;;;7.63;;
50932;SDS011;36921;49.006;9.292;2022-12-07T08:47:23;18.48;;;7.68;;
50932;SDS011;36921;49.006;9.292;2022-12-07T08:53:20;17.58;;;6.53;;
50932;SDS011;36921;49.006;9.292;2022-12-07T08:55:46;19.55;;;7.32;;
50932;SDS011;36921;49.006;9.292;2022-12-07T08:58:13;14.55;;;7.15;;
50932;SDS011;36921;49.006;9.292;2022-12-07T09:00:38;14.35;;;6.80;;
50932;SDS011;36921;49.006;9.292;2022-12-07T09:03:03;14.35;;;7.35;;
50932;SDS011;36921;49.006;9.292;2022-12-07T09:05:34;15.48;;;7.40;;
50932;SDS011;36921;49.006;9.292;2022-12-07T09:15:34;13.75;;;7.13;;
50932;SDS011;36921;49.006;9.292;2022-12-07T09:18:22;18.05;;;6.80;;
50932;SDS011;36921;49.006;9.292;2022-12-07T09:21:20;11.80;;;6.10;;
50932;SDS011;36921;49.006;9.292;2022-12-07T09:23:46;14.30;;;7.55;;
50932;SDS011;36921;49.006;9.292;2022-12-07T09:26:11;14.15;;;6.45;;
50932;SDS011;36921;49.006;9.292;2022-12-07T09:28:37;16.65;;;7.60;;
50932;SDS011;36921;49.006;9.292;2022-12-07T09:31:02;14.43;;;7.30;;
50932;SDS011;36921;49.006;9.292;2022-12-07T09:33:29;12.35;;;6.72;;
50932;SDS011;36921;49.006;9.292;2022-12-07T09:35:54;12.82;;;6.60;;
50932;SDS011;36921;49.006;9.292;2022-12-07T09:38:20;13.80;;;5.03;;
50932;SDS011;36921;49.006;9.292;2022-12-07T09:40:45;14.80;;;5.88;;
50932;SDS011;36921;49.006;9.292;2022-12-07T09:43:22;13.98;;;5.50;;
50932;SDS011;36921;49.006;9.292;2022-12-07T09:45:50;10.60;;;4.85;;
50932;SDS011;36921;49.006;9.292;2022-12-07T09:51:28;10.63;;;4.75;;
50932;SDS011;36921;49.006;9.292;2022-12-07T09:53:54;8.48;;;4.47;;
50932;SDS011;36921;49.006;9.292;2022-12-07T09:56:22;15.75;;;4.95;;
50932;SDS011;36921;49.006;9.292;2022-12-07T09:58:49;9.85;;;6.05;;
50932;SDS011;36921;49.006;9.292;2022-12-07T10:01:22;10.55;;;4.75;;
50932;SDS011;36921;49.006;9.292;2022-12-07T10:03:51;9.18;;;4.03;;
50932;SDS011;36921;49.006;9.292;2022-12-07T10:06:19;9.73;;;5.07;;
50932;SDS011;36921;49.006;9.292;2022-12-07T10:08:45;10.55;;;5.22;;
50932;SDS011;36921;49.006;9.292;2022-12-07T10:11:11;9.35;;;4.60;;
50932;SDS011;36921;49.006;9.292;2022-12-07T10:13:41;10.80;;;4.55;;
50932;SDS011;36921;49.006;9.292;2022-12-07T10:18:53;10.48;;;4.40;;
50932;SDS011;36921;49.006;9.292;2022-12-07T10:21:23;7.53;;;4.47;;
50932;SDS011;36921;49.006;9.292;2022-12-07T10:24:04;9.10;;;4.68;;
50932;SDS011;36921;49.006;9.292;2022-12-07T10:26:48;10.13;;;4.18;;
50932;SDS011;36921;49.006;9.292;2022-12-07T10:29:23;7.70;;;3.85;;
50932;SDS011;36921;49.006;9.292;2022-12-07T10:32:04;7.00;;;3.20;;
50932;SDS011;36921;49.006;9.292;2022-12-07T10:34:38;10.10;;;3.20;;
50932;SDS011;36921;49.006;9.292;2022-12-07T10:37:13;6.05;;;3.22;;
50932;SDS011;36921;49.006;9.292;2022-12-07T10:39:47;7.90;;;3.85;;
50932;SDS011;36921;49.006;9.292;2022-12-07T10:42:18;8.57;;;4.13;;
50932;SDS011;36921;49.006;9.292;2022-12-07T10:44:45;8.35;;;4.93;;
50932;SDS011;36921;49.006;9.292;2022-12-07T10:55:39;6.28;;;3.15;;
50932;SDS011;36921;49.006;9.292;2022-12-07T11:00:49;5.35;;;3.03;;
50932;SDS011;36921;49.006;9.292;2022-12-07T11:06:14;7.32;;;3.20;;
50932;SDS011;36921;49.006;9.292;2022-12-07T11:11:36;10.73;;;3.05;;
50932;SDS011;36921;49.006;9.292;2022-12-07T11:16:57;7.47;;;3.25;;
50932;SDS011;36921;49.006;9.292;2022-12-07T11:22:36;7.78;;;3.45;;
50932;SDS011;36921;49.006;9.292;2022-12-07T11:25:31;6.38;;;3.70;;
50932;SDS011;36921;49.006;9.292;2022-12-07T11:30:34;8.07;;;3.75;;
50932;SDS011;36921;49.006;9.292;2022-12-07T11:33:17;10.63;;;3.95;;
50932;SDS011;36921;49.006;9.292;2022-12-07T11:36:04;7.10;;;3.70;;
50932;SDS011;36921;49.006;9.292;2022-12-07T11:38:53;8.20;;;4.40;;
50932;SDS011;36921;49.006;9.292;2022-12-07T11:41:24;9.45;;;4.68;;
50932;SDS011;36921;49.006;9.292;2022-12-07T11:46:27;7.78;;;4.28;;
50932;SDS011;36921;49.006;9.292;2022-12-07T11:49:35;10.27;;;4.15;;
50932;SDS011;36921;49.006;9.292;2022-12-07T11:52:04;11.77;;;4.57;;
50932;SDS011;36921;49.006;9.292;2022-12-07T11:54:35;8.48;;;4.38;;
50932;SDS011;36921;49.006;9.292;2022-12-07T11:57:07;13.68;;;4.63;;
50932;SDS011;36921;49.006;9.292;2022-12-07T11:59:42;10.13;;;4.70;;
50932;SDS011;36921;49.006;9.292;2022-12-07T12:02:24;8.85;;;4.10;;
50932;SDS011;36921;49.006;9.292;2022-12-07T12:05:14;8.30;;;4.15;;
50932;SDS011;36921;49.006;9.292;2022-12-07T12:07:43;8.70;;;4.43;;
50932;SDS011;36921;49.006;9.292;2022-12-07T12:10:16;9.88;;;4.75;;
50932;SDS011;36921;49.006;9.292;2022-12-07T12:12:50;13.80;;;4.90;;
50932;SDS011;36921;49.006;9.292;2022-12-07T12:21:12;9.15;;;4.72;;
50932;SDS011;36921;49.006;9.292;2022-12-07T12:23:44;9.88;;;5.03;;
50932;SDS011;36921;49.006;9.292;2022-12-07T12:33:53;10.55;;;5.32;;
50932;SDS011;36921;49.006;9.292;2022-12-07T12:36:23;12.75;;;5.75;;
50932;SDS011;36921;49.006;9.292;2022-12-07T12:47:03;11.25;;;5.28;;
50932;SDS011;36921;49.006;9.292;2022-12-07T12:57:33;13.23;;;5.57;;
50932;SDS011;36921;49.006;9.292;2022-12-07T13:00:02;13.32;;;5.97;;
50932;SDS011;36921;49.006;9.292;2022-12-07T13:02:56;12.82;;;6.75;;
50932;SDS011;36921;49.006;9.292;2022-12-07T13:05:33;15.30;;;6.60;;
50932;SDS011;36921;49.006;9.292;2022-12-07T13:18:14;11.85;;;5.90;;
50932;SDS011;36921;49.006;9.292;2022-12-07T13:20:51;14.70;;;6.80;;
50932;SDS011;36921;49.006;9.292;2022-12-07T13:23:38;10.18;;;6.28;;
50932;SDS011;36921;49.006;9.292;2022-12-07T13:31:51;13.15;;;6.40;;
50932;SDS011;36921;49.006;9.292;2022-12-07T13:37:00;9.70;;;6.53;;
50932;SDS011;36921;49.006;9.292;2022-12-07T13:39:45;9.40;;;4.68;;
50932;SDS011;36921;49.006;9.292;2022-12-07T13:42:26;11.38;;;5.25;;
50932;SDS011;36921;49.006;9.292;2022-12-07T13:45:00;12.18;;;5.60;;
50932;SDS011;36921;49.006;9.292;2022-12-07T13:48:04;11.10;;;5.40;;
50932;SDS011;36921;49.006;9.292;2022-12-07T13:50:31;12.50;;;5.63;;
50932;SDS011;36921;49.006;9.292;2022-12-07T13:52:57;10.55;;;5.57;;
50932;SDS011;36921;49.006;9.292;2022-12-07T13:55:24;9.70;;;6.18;;
50932;SDS011;36921;49.006;9.292;2022-12-07T13:57:51;11.80;;;6.28;;
50932;SDS011;36921;49.006;9.292;2022-12-07T14:00:25;12.27;;;6.13;;
50932;SDS011;36921;49.006;9.292;2022-12-07T14:03:00;9.85;;;5.45;;
50932;SDS011;36921;49.006;9.292;2022-12-07T14:05:34;13.38;;;5.97;;
50932;SDS011;36921;49.006;9.292;2022-12-07T14:08:01;10.52;;;5.35;;
50932;SDS011;36921;49.006;9.292;2022-12-07T14:12:56;11.55;;;6.15;;
50932;SDS011;36921;49.006;9.292;2022-12-07T14:15:26;24.02;;;6.35;;
50932;SDS011;36921;49.006;9.292;2022-12-07T14:17:54;10.35;;;5.72;;
50932;SDS011;36921;49.006;9.292;2022-12-07T14:22:55;11.35;;;6.18;;
50932;SDS011;36921;49.006;9.292;2022-12-07T14:25:22;13.00;;;6.55;;
50932;SDS011;36921;49.006;9.292;2022-12-07T14:27:59;11.98;;;6.63;;
50932;SDS011;36921;49.006;9.292;2022-12-07T14:30:32;11.48;;;5.78;;
50932;SDS011;36921;49.006;9.292;2022-12-07T14:32:59;11.48;;;6.13;;
50932;SDS011;36921;49.006;9.292;2022-12-07T14:35:28;11.23;;;6.07;;
50932;SDS011;36921;49.006;9.292;2022-12-07T14:37:54;11.40;;;6.13;;
50932;SDS011;36921;49.006;9.292;2022-12-07T14:40:21;13.20;;;6.20;;
50932;SDS011;36921;49.006;9.292;2022-12-07T14:42:50;11.52;;;6.30;;
50932;SDS011;36921;49.006;9.292;2022-12-07T14:45:19;12.70;;;7.00;;
50932;SDS011;36921;49.006;9.292;2022-12-07T14:47:46;15.13;;;7.10;;
50932;SDS011;36921;49.006;9.292;2022-12-07T14:50:12;15.90;;;7.80;;
50932;SDS011;36921;49.006;9.292;2022-12-07T14:52:39;15.63;;;8.27;;
50932;SDS011;36921;49.006;9.292;2022-12-07T14:55:11;12.43;;;6.85;;
50932;SDS011;36921;49.006;9.292;2022-12-07T14:57:39;14.13;;;7.40;;
50932;SDS011;36921;49.006;9.292;2022-12-07T15:00:04;15.23;;;7.05;;
50932;SDS011;36921;49.006;9.292;2022-12-07T15:02:33;12.88;;;6.43;;
50932;SDS011;36921;49.006;9.292;2022-12-07T15:04:59;14.38;;;7.22;;
50932;SDS011;36921;49.006;9.292;2022-12-07T15:07:24;14.73;;;7.65;;
50932;SDS011;36921;49.006;9.292;2022-12-07T15:09:51;13.30;;;7.40;;
50932;SDS011;36921;49.006;9.292;2022-12-07T15:12:16;13.80;;;7.30;;
50932;SDS011;36921;49.006;9.292;2022-12-07T15:14:42;16.77;;;7.22;;
50932;SDS011;36921;49.006;9.292;2022-12-07T15:17:09;17.90;;;8.00;;
50932;SDS011;36921;49.006;9.292;2022-12-07T15:19:36;15.85;;;7.30;;
50932;SDS011;36921;49.006;9.292;2022-12-07T15:22:02;13.35;;;7.07;;
50932;SDS011;36921;49.006;9.292;2022-12-07T15:24:27;16.50;;;7.72;;
50932;SDS011;36921;49.006;9.292;2022-12-07T15:26:52;15.85;;;7.40;;
50932;SDS011;36921;49.006;9.292;2022-12-07T15:29:18;16.33;;;8.20;;
50932;SDS011;36921;49.006;9.292;2022-12-07T15:31:43;20.98;;;9.88;;
50932;SDS011;36921;49.006;9.292;2022-12-07T15:34:10;28.88;;;11.73;;
50932;SDS011;36921;49.006;9.292;2022-12-07T15:36:36;30.45;;;13.02;;
50932;SDS011;36921;49.006;9.292;2022-12-07T15:39:01;23.30;;;11.13;;
50932;SDS011;36921;49.006;9.292;2022-12-07T15:41:27;17.17;;;9.43;;
50932;SDS011;36921;49.006;9.292;2022-12-07T15:43:52;25.38;;;10.50;;
50932;SDS011;36921;49.006;9.292;2022-12-07T15:46:37;19.25;;;9.00;;
50932;SDS011;36921;49.006;9.292;2022-12-07T15:49:09;22.48;;;10.30;;
50932;SDS011;36921;49.006;9.292;2022-12-07T15:51:37;18.42;;;9.18;;
50932;SDS011;36921;49.006;9.292;2022-12-07T15:54:02;21.67;;;9.55;;
50932;SDS011;36921;49.006;9.292;2022-12-07T15:56:27;21.08;;;10.38;;
50932;SDS011;36921;49.006;9.292;2022-12-07T15:58:53;18.58;;;8.95;;
50932;SDS011;36921;49.006;9.292;2022-12-07T16:01:18;25.65;;;9.80;;
50932;SDS011;36921;49.006;9.292;2022-12-07T16:03:45;23.63;;;10.85;;
50932;SDS011;36921;49.006;9.292;2022-12-07T16:06:11;19.42;;;10.20;;
50932;SDS011;36921;49.006;9.292;2022-12-07T16:08:37;20.88;;;9.98;;
50932;SDS011;36921;49.006;9.292;2022-12-07T16:11:07;22.20;;;9.43;;
50932;SDS011;36921;49.006;9.292;2022-12-07T16:13:33;25.42;;;10.63;;
50932;SDS011;36921;49.006;9.292;2022-12-07T16:16:06;20.63;;;10.00;;
50932;SDS011;36921;49.006;9.292;2022-12-07T16:18:34;19.83;;;8.63;;
50932;SDS011;36921;49.006;9.292;2022-12-07T16:21:00;22.95;;;9.23;;
50932;SDS011;36921;49.006;9.292;2022-12-07T16:23:25;22.35;;;10.48;;
50932;SDS011;36921;49.006;9.292;2022-12-07T16:25:51;26.60;;;9.80;;
50932;SDS011;36921;49.006;9.292;2022-12-07T16:28:16;27.42;;;9.50;;
50932;SDS011;36921;49.006;9.292;2022-12-07T16:30:42;22.90;;;10.57;;
50932;SDS011;36921;49.006;9.292;2022-12-07T16:33:07;20.73;;;9.23;;
50932;SDS011;36921;49.006;9.292;2022-12-07T16:35:32;19.00;;;8.93;;
50932;SDS011;36921;49.006;9.292;2022-12-07T16:37:58;22.35;;;9.95;;
50932;SDS011;36921;49.006;9.292;2022-12-07T16:40:23;19.90;;;9.63;;
50932;SDS011;36921;49.006;9.292;2022-12-07T16:42:48;19.33;;;9.57;;
50932;SDS011;36921;49.006;9.292;2022-12-07T16:45:14;20.23;;;8.73;;
50932;SDS011;36921;49.006;9.292;2022-12-07T16:47:39;22.13;;;10.25;;
50932;SDS011;36921;49.006;9.292;2022-12-07T16:50:05;20.33;;;9.30;;
50932;SDS011;36921;49.006;9.292;2022-12-07T16:52:32;22.17;;;11.02;;
50932;SDS011;36921;49.006;9.292;2022-12-07T16:54:58;25.10;;;11.43;;
50932;SDS011;36921;49.006;9.292;2022-12-07T16:57:23;25.33;;;11.65;;
50932;SDS011;36921;49.006;9.292;2022-12-07T16:59:48;22.85;;;11.60;;
50932;SDS011;36921;49.006;9.292;2022-12-07T17:02:14;22.67;;;10.95;;
50932;SDS011;36921;49.006;9.292;2022-12-07T17:04:39;37.80;;;15.70;;
50932;SDS011;36921;49.006;9.292;2022-12-07T17:07:07;23.30;;;12.10;;
50932;SDS011;36921;49.006;9.292;2022-12-07T17:09:33;22.27;;;10.55;;
50932;SDS011;36921;49.006;9.292;2022-12-07T17:11:59;25.02;;;10.48;;
50932;SDS011;36921;49.006;9.292;2022-12-07T17:14:24;25.25;;;10.80;;
50932;SDS011;36921;49.006;9.292;2022-12-07T17:17:08;26.10;;;12.25;;
50932;SDS011;36921;49.006;9.292;2022-12-07T17:19:33;37.83;;;15.73;;
50932;SDS011;36921;49.006;9.292;2022-12-07T17:21:59;41.75;;;17.13;;
50932;SDS011;36921;49.006;9.292;2022-12-07T17:24:24;26.70;;;12.13;;
50932;SDS011;36921;49.006;9.292;2022-12-07T17:26:50;32.67;;;15.23;;
50932;SDS011;36921;49.006;9.292;2022-12-07T17:29:16;25.92;;;11.55;;
50932;SDS011;36921;49.006;9.292;2022-12-07T17:31:43;21.42;;;10.77;;
50932;SDS011;36921;49.006;9.292;2022-12-07T17:34:13;20.60;;;9.90;;
50932;SDS011;36921;49.006;9.292;2022-12-07T17:36:39;19.90;;;10.15;;
50932;SDS011;36921;49.006;9.292;2022-12-07T17:39:08;20.60;;;9.70;;
50932;SDS011;36921;49.006;9.292;2022-12-07T17:41:34;21.25;;;9.55;;
50932;SDS011;36921;49.006;9.292;2022-12-07T17:44:19;18.98;;;9.35;;
50932;SDS011;36921;49.006;9.292;2022-12-07T17:46:46;21.67;;;10.30;;